Time;durP1;ratioP1;P1;durP2;ratioP2;P2;SDS_P1;SDS_P2;PMS_P1;PMS_P2;Temp;Humidity;BMP_temperature;BMP_pressure;BME280_temperature;BME280_humidity;BME280_pressure;Samples;Min_cycle;Max_cycle;Signal;HPM_P1;HPM_P2
2023/03/04 00:00:53;;;;;;;95.27;28.43;;;-1.10;99.90;;;;;;4424842;28;660026;-75
2023/03/04 00:03:42;;;;;;;105.30;32.30;;;-1.10;99.90;;;;;;4402665;28;659237;-75
2023/03/04 00:06:29;;;;;;;92.83;26.20;;;-1.10;99.90;;;;;;4424988;28;659428;-75
2023/03/04 00:09:16;;;;;;;90.28;27.58;;;-1.00;99.90;;;;;;4404728;28;659404;-75
2023/03/04 00:12:06;;;;;;;80.00;23.27;;;-1.10;99.90;;;;;;4429483;28;658695;-75
2023/03/04 00:14:54;;;;;;;93.33;26.80;;;-1.00;99.90;;;;;;4396971;28;658845;-75
2023/03/04 00:17:41;;;;;;;88.43;27.47;;;-1.10;99.90;;;;;;4397347;28;659088;-75
2023/03/04 00:20:29;;;;;;;84.03;24.63;;;-1.10;99.90;;;;;;4422162;28;659592;-76
2023/03/04 00:23:17;;;;;;;93.50;26.40;;;-1.00;99.90;;;;;;4402209;28;659155;-75
2023/03/04 00:26:04;;;;;;;100.60;30.03;;;-1.00;99.90;;;;;;4418938;28;658833;-76
2023/03/04 00:28:51;;;;;;;83.40;25.23;;;-1.00;99.90;;;;;;4394257;28;660285;-75
2023/03/04 00:31:39;;;;;;;112.93;28.40;;;-0.90;99.90;;;;;;4425834;28;658387;-75
2023/03/04 00:34:26;;;;;;;99.60;30.03;;;-1.00;99.90;;;;;;4403696;28;659522;-75
2023/03/04 00:37:15;;;;;;;89.97;28.47;;;-1.00;99.90;;;;;;4422162;28;658346;-75
2023/03/04 00:40:02;;;;;;;116.50;32.93;;;-1.00;99.90;;;;;;4403538;28;658894;-76
2023/03/04 00:42:49;;;;;;;121.93;33.97;;;-1.00;99.90;;;;;;4424140;28;660224;-76
2023/03/04 00:45:36;;;;;;;99.90;31.00;;;-1.10;99.90;;;;;;4401455;28;660191;-75
2023/03/04 00:48:24;;;;;;;127.03;34.17;;;-1.10;99.90;;;;;;4427139;28;659632;-76
2023/03/04 00:51:11;;;;;;;124.73;35.27;;;-1.10;99.90;;;;;;4400298;28;660009;-76
2023/03/04 00:53:59;;;;;;;130.27;35.83;;;-1.10;99.90;;;;;;4419907;28;660463;-76
2023/03/04 00:56:47;;;;;;;125.23;35.30;;;-1.10;99.90;;;;;;4398489;28;659907;-76
2023/03/04 00:59:34;;;;;;;108.20;28.50;;;-1.20;99.90;;;;;;4416244;28;659834;-75
2023/03/04 01:02:21;;;;;;;110.80;30.00;;;-1.10;99.90;;;;;;4399653;28;660506;-75
2023/03/04 01:05:09;;;;;;;96.20;28.47;;;-1.10;99.90;;;;;;4421405;28;659609;-75
2023/03/04 01:07:56;;;;;;;103.30;31.43;;;-1.20;99.90;;;;;;4401611;28;658885;-76
2023/03/04 01:10:46;;;;;;;112.87;31.73;;;-1.10;99.90;;;;;;4413366;28;660427;-76
2023/03/04 01:13:34;;;;;;;118.65;31.77;;;-1.10;99.90;;;;;;4405006;28;660240;-75
2023/03/04 01:16:21;;;;;;;107.10;28.33;;;-1.20;99.90;;;;;;4404457;28;660212;-76
2023/03/04 01:19:08;;;;;;;115.60;30.87;;;-1.20;99.90;;;;;;4422737;28;660304;-76
2023/03/04 01:21:55;;;;;;;123.67;34.37;;;-1.20;99.90;;;;;;4407520;28;659886;-75
2023/03/04 01:24:42;;;;;;;120.53;31.13;;;-1.20;99.90;;;;;;4423852;28;659936;-76
2023/03/04 01:27:32;;;;;;;113.53;30.47;;;-1.20;99.90;;;;;;4421492;28;660413;-74
2023/03/04 01:30:19;;;;;;;126.83;32.60;;;-1.20;99.90;;;;;;4429826;28;659941;-76
2023/03/04 01:33:06;;;;;;;119.27;30.40;;;-1.20;99.90;;;;;;4408224;28;659754;-75
2023/03/04 01:35:54;;;;;;;83.50;24.20;;;-1.20;99.90;;;;;;4422540;28;659803;-76
2023/03/04 01:38:41;;;;;;;79.63;19.97;;;-1.10;99.90;;;;;;4406538;28;658594;-76
2023/03/04 01:41:28;;;;;;;81.40;24.87;;;-1.10;99.90;;;;;;4428280;28;659620;-76
2023/03/04 01:44:17;;;;;;;95.10;26.63;;;-1.10;99.90;;;;;;4408000;28;658706;-76
2023/03/04 01:47:04;;;;;;;103.20;29.87;;;-1.10;99.90;;;;;;4429950;28;658564;-76
2023/03/04 01:49:54;;;;;;;90.63;25.95;;;-1.10;99.90;;;;;;4408341;28;659570;-75
2023/03/04 01:52:41;;;;;;;119.63;32.30;;;-1.10;99.90;;;;;;4400264;28;658546;-75
2023/03/04 01:55:29;;;;;;;115.03;33.63;;;-1.20;99.90;;;;;;4426431;28;659532;-76
2023/03/04 01:58:16;;;;;;;104.27;30.10;;;-1.10;99.90;;;;;;4404633;28;660719;-76
2023/03/04 02:01:05;;;;;;;107.65;29.30;;;-1.10;99.90;;;;;;4430736;28;659846;-75
2023/03/04 02:03:52;;;;;;;113.50;30.77;;;-1.10;99.90;;;;;;4399048;28;660164;-75
2023/03/04 02:06:39;;;;;;;83.65;25.33;;;-1.10;99.90;;;;;;4423394;28;659851;-76
2023/03/04 02:09:27;;;;;;;111.87;30.67;;;-1.10;99.90;;;;;;4407484;28;658590;-76
2023/03/04 02:12:14;;;;;;;96.43;26.73;;;-1.00;99.90;;;;;;4420590;28;659534;-77
2023/03/04 02:15:01;;;;;;;78.10;21.98;;;-1.00;99.90;;;;;;4400819;28;658659;-76
2023/03/04 02:17:50;;;;;;;79.80;23.97;;;-1.00;99.90;;;;;;4425402;28;659419;-76
2023/03/04 02:20:42;;;;;;;63.67;21.03;;;-1.00;99.90;;;;;;4405322;28;658906;-76
2023/03/04 02:23:32;;;;;;;73.88;22.45;;;-1.00;99.90;;;;;;4406766;28;658678;-76
2023/03/04 02:26:22;;;;;;;107.30;30.33;;;-1.00;99.90;;;;;;4424066;28;658120;-75
2023/03/04 02:29:09;;;;;;;88.83;26.33;;;-0.90;99.90;;;;;;4426405;28;659502;-76
2023/03/04 02:31:56;;;;;;;90.20;27.07;;;-1.00;99.90;;;;;;4402647;28;658212;-75
2023/03/04 02:34:46;;;;;;;90.80;26.03;;;-1.00;99.90;;;;;;4427203;28;658396;-76
2023/03/04 02:37:33;;;;;;;85.10;26.10;;;-1.00;99.90;;;;;;4412130;28;659138;-76
2023/03/04 02:40:23;;;;;;;82.13;24.83;;;-1.00;99.90;;;;;;4407440;28;659558;-75
2023/03/04 02:43:12;;;;;;;89.85;28.85;;;-1.00;99.90;;;;;;4407152;28;658927;-75
2023/03/04 02:45:59;;;;;;;103.67;29.47;;;-1.10;99.90;;;;;;4424595;28;658250;-76
2023/03/04 02:48:46;;;;;;;86.85;26.45;;;-1.00;99.90;;;;;;4401344;28;660182;-76
2023/03/04 02:51:33;;;;;;;85.20;23.97;;;-1.10;99.90;;;;;;4433636;28;659026;-76
2023/03/04 02:54:21;;;;;;;102.80;29.37;;;-1.00;99.90;;;;;;4403161;28;658965;-76
2023/03/04 02:57:10;;;;;;;89.40;28.27;;;-1.10;99.90;;;;;;4421218;28;660051;-76
2023/03/04 02:59:58;;;;;;;102.13;29.60;;;-1.00;99.90;;;;;;4401508;28;659624;-76
2023/03/04 03:02:45;;;;;;;104.13;29.47;;;-1.00;99.90;;;;;;4403059;28;659469;-75
2023/03/04 03:05:34;;;;;;;114.23;31.97;;;-1.00;99.90;;;;;;4386986;28;1122657;-76
2023/03/04 03:08:21;;;;;;;114.18;32.25;;;-1.10;99.90;;;;;;4399778;28;660439;-76
2023/03/04 03:11:08;;;;;;;97.13;29.37;;;-1.00;99.90;;;;;;4425029;28;660751;-76
2023/03/04 03:13:55;;;;;;;99.53;30.00;;;-1.00;99.90;;;;;;4407545;28;659494;-74
2023/03/04 03:16:44;;;;;;;71.77;21.27;;;-1.00;99.90;;;;;;4372112;28;658893;-74
2023/03/04 03:19:31;;;;;;;98.70;27.97;;;-1.00;99.90;;;;;;4226555;28;658748;-74
2023/03/04 03:22:19;;;;;;;94.10;29.60;;;-1.00;99.90;;;;;;4253487;28;658894;-75
2023/03/04 03:25:07;;;;;;;92.80;27.27;;;-1.10;99.90;;;;;;4403260;28;658712;-76
2023/03/04 03:27:54;;;;;;;91.47;28.70;;;-1.00;99.90;;;;;;4429859;28;658597;-76
2023/03/04 03:30:42;;;;;;;63.53;20.83;;;-1.00;99.90;;;;;;4403643;28;660178;-75
2023/03/04 03:33:30;;;;;;;72.70;24.57;;;-1.00;99.90;;;;;;4431835;28;658255;-76
2023/03/04 03:36:18;;;;;;;91.73;29.33;;;-1.00;99.90;;;;;;4406642;28;659846;-76
2023/03/04 03:39:05;;;;;;;95.30;28.17;;;-1.00;99.90;;;;;;4419455;28;658716;-75
2023/03/04 03:41:52;;;;;;;95.40;28.67;;;-0.90;99.90;;;;;;4434993;28;659378;-76
2023/03/04 03:44:40;;;;;;;95.10;29.97;;;-1.00;99.90;;;;;;4428449;28;657625;-76
2023/03/04 03:47:27;;;;;;;83.73;28.90;;;-1.00;99.90;;;;;;4428183;28;659793;-76
2023/03/04 03:50:17;;;;;;;73.27;23.47;;;-1.00;99.90;;;;;;4432430;28;658920;-75
2023/03/04 03:53:04;;;;;;;92.60;26.10;;;-1.00;99.90;;;;;;4426758;28;658647;-76
2023/03/04 03:55:52;;;;;;;106.22;29.85;;;-1.00;99.90;;;;;;4402173;28;659483;-76
2023/03/04 03:58:39;;;;;;;89.50;29.33;;;-1.00;99.90;;;;;;4422546;28;659407;-76
2023/03/04 04:01:26;;;;;;;96.23;27.93;;;-0.90;99.90;;;;;;4403653;28;658413;-75
2023/03/04 04:04:13;;;;;;;74.47;24.37;;;-0.90;99.90;;;;;;4428230;28;658881;-76
2023/03/04 04:07:02;;;;;;;64.57;21.30;;;-0.90;99.90;;;;;;4405003;28;658624;-75
2023/03/04 04:09:49;;;;;;;77.57;25.30;;;-1.00;99.90;;;;;;4426921;28;657562;-76
2023/03/04 04:12:36;;;;;;;73.37;25.00;;;-1.00;99.90;;;;;;4398027;28;658457;-75
2023/03/04 04:15:24;;;;;;;67.17;22.90;;;-1.00;99.90;;;;;;4423717;28;658384;-76
2023/03/04 04:18:11;;;;;;;63.93;20.57;;;-1.00;99.90;;;;;;4400871;28;658864;-76
2023/03/04 04:20:58;;;;;;;65.07;21.83;;;-1.00;99.90;;;;;;4421921;28;658930;-76
2023/03/04 04:23:47;;;;;;;59.40;18.93;;;-1.00;99.90;;;;;;4405019;28;659094;-76
2023/03/04 04:26:34;;;;;;;70.40;23.23;;;-1.10;99.90;;;;;;4418476;28;658627;-76
2023/03/04 04:29:22;;;;;;;79.55;26.55;;;-1.10;99.90;;;;;;4403265;28;658750;-76
2023/03/04 04:32:11;;;;;;;78.37;26.33;;;-1.10;99.90;;;;;;4421488;28;658597;-76
2023/03/04 04:34:59;;;;;;;74.80;26.50;;;-1.00;99.90;;;;;;4396785;28;658672;-76
2023/03/04 04:37:46;;;;;;;55.90;17.37;;;-1.00;99.90;;;;;;4404148;28;658827;-77
2023/03/04 04:40:35;;;;;;;77.40;24.67;;;-1.10;99.90;;;;;;4420652;28;659951;-76
2023/03/04 04:43:22;;;;;;;69.17;23.23;;;-1.10;99.90;;;;;;4398791;28;659534;-77
2023/03/04 04:46:09;;;;;;;59.17;20.23;;;-1.00;99.90;;;;;;4419370;28;658514;-75
2023/03/04 04:48:56;;;;;;;76.93;21.42;;;-1.10;99.90;;;;;;4401848;28;659128;-75
2023/03/04 04:51:43;;;;;;;62.03;20.00;;;-1.10;99.90;;;;;;4420787;28;659126;-77
2023/03/04 04:54:31;;;;;;;74.50;26.13;;;-1.10;99.90;;;;;;4409082;28;659658;-75
2023/03/04 04:57:19;;;;;;;74.03;23.33;;;-1.10;99.90;;;;;;4428463;28;659651;-77
2023/03/04 05:00:08;;;;;;;80.07;23.93;;;-1.10;99.90;;;;;;4400443;28;659184;-76
2023/03/04 05:02:56;;;;;;;70.90;20.63;;;-1.10;99.90;;;;;;4403346;28;658811;-74
2023/03/04 05:05:43;;;;;;;79.53;23.03;;;-1.00;99.90;;;;;;4419771;28;659229;-77
2023/03/04 05:08:30;;;;;;;83.10;24.07;;;-1.10;99.90;;;;;;4409115;28;658875;-75
2023/03/04 05:11:18;;;;;;;86.17;24.23;;;-1.10;99.90;;;;;;4421857;28;659464;-75
2023/03/04 05:14:07;;;;;;;78.90;21.90;;;-1.10;99.90;;;;;;4403857;28;658625;-75
2023/03/04 05:16:54;;;;;;;91.03;26.83;;;-1.10;99.90;;;;;;4425549;28;658328;-77
2023/03/04 05:19:41;;;;;;;93.60;23.77;;;-1.10;99.90;;;;;;4399688;28;659245;-75
2023/03/04 05:22:28;;;;;;;104.83;29.83;;;-1.00;99.90;;;;;;4425236;28;658701;-77
2023/03/04 05:25:15;;;;;;;77.07;21.67;;;-1.10;99.90;;;;;;4405036;28;659732;-76
2023/03/04 05:28:03;;;;;;;88.10;27.13;;;-1.10;99.90;;;;;;4418562;28;659568;-77
2023/03/04 05:30:52;;;;;;;91.77;29.03;;;-1.10;99.90;;;;;;4401594;28;660290;-76
2023/03/04 05:33:39;;;;;;;66.13;22.03;;;-1.10;99.90;;;;;;4424878;28;657735;-77
2023/03/04 05:36:26;;;;;;;85.47;26.70;;;-1.20;99.90;;;;;;4401180;28;658884;-76
2023/03/04 05:39:14;;;;;;;60.83;19.90;;;-1.10;99.90;;;;;;4423641;28;658423;-76
2023/03/04 05:42:01;;;;;;;70.93;23.23;;;-1.10;99.90;;;;;;4400532;28;658611;-76
2023/03/04 05:44:48;;;;;;;57.37;18.53;;;-1.20;99.90;;;;;;4423626;28;659320;-77
2023/03/04 05:47:37;;;;;;;72.97;24.17;;;-1.20;99.90;;;;;;4405434;28;658888;-76
2023/03/04 05:50:24;;;;;;;60.17;18.90;;;-1.20;99.90;;;;;;4423970;28;658883;-76
2023/03/04 05:53:11;;;;;;;76.72;22.38;;;-1.30;99.90;;;;;;4403375;28;658716;-77
2023/03/04 05:55:59;;;;;;;65.07;18.70;;;-1.30;99.90;;;;;;4432851;28;658724;-75
2023/03/04 05:58:46;;;;;;;71.73;19.67;;;-1.30;99.90;;;;;;4402717;28;658837;-77
2023/03/04 06:01:34;;;;;;;68.27;19.27;;;-1.30;99.90;;;;;;4436249;28;659145;-75
2023/03/04 06:04:22;;;;;;;61.30;17.67;;;-1.30;99.90;;;;;;4406503;28;658645;-74
2023/03/04 06:07:10;;;;;;;53.83;17.00;;;-1.30;99.90;;;;;;4420862;28;658356;-75
2023/03/04 06:09:57;;;;;;;58.03;17.87;;;-1.30;99.90;;;;;;4429925;28;658787;-75
2023/03/04 06:12:45;;;;;;;67.27;21.83;;;-1.40;99.90;;;;;;4425202;28;658980;-76
2023/03/04 06:15:32;;;;;;;46.53;16.47;;;-1.40;99.90;;;;;;4431192;28;658618;-76
2023/03/04 06:18:20;;;;;;;69.20;19.40;;;-1.30;99.90;;;;;;4428931;28;658986;-78
2023/03/04 06:21:08;;;;;;;77.83;22.30;;;-1.30;99.90;;;;;;4408659;28;659512;-75
2023/03/04 06:23:55;;;;;;;76.57;23.70;;;-1.40;99.90;;;;;;4410337;28;658850;-75
2023/03/04 06:26:43;;;;;;;69.20;20.17;;;-1.30;99.90;;;;;;4419454;28;659441;-76
2023/03/04 06:29:30;;;;;;;84.13;26.23;;;-1.30;99.90;;;;;;4417169;28;659080;-75
2023/03/04 06:32:17;;;;;;;70.87;19.57;;;-1.30;99.90;;;;;;4423563;28;659165;-75
2023/03/04 06:35:06;;;;;;;51.93;15.80;;;-1.20;99.90;;;;;;4417950;28;658533;-75
2023/03/04 06:37:55;;;;;;;49.08;15.32;;;-1.30;99.90;;;;;;4423435;28;659274;-75
2023/03/04 06:40:43;;;;;;;76.13;20.23;;;-1.40;99.90;;;;;;4401673;28;659349;-76
2023/03/04 06:43:30;;;;;;;81.30;24.03;;;-1.40;99.90;;;;;;4415014;28;658802;-76
2023/03/04 06:46:17;;;;;;;83.90;25.83;;;-1.30;99.90;;;;;;4432086;28;658760;-76
2023/03/04 06:49:05;;;;;;;59.77;17.83;;;-1.30;99.90;;;;;;4422059;28;658684;-74
2023/03/04 06:51:52;;;;;;;81.23;22.73;;;-1.20;99.90;;;;;;4425346;28;659385;-76
2023/03/04 06:54:42;;;;;;;55.60;19.87;;;-1.20;99.90;;;;;;4421580;28;658734;-75
2023/03/04 06:57:29;;;;;;;67.80;21.27;;;-1.20;99.90;;;;;;4428561;28;658298;-76
2023/03/04 07:00:18;;;;;;;59.43;19.47;;;-1.20;99.90;;;;;;4403848;28;658760;-75
2023/03/04 07:03:05;;;;;;;79.13;24.17;;;-1.20;99.90;;;;;;4409595;28;659587;-75
2023/03/04 07:05:53;;;;;;;59.07;16.70;;;-1.30;99.90;;;;;;4422824;28;659505;-77
2023/03/04 07:08:40;;;;;;;56.60;17.07;;;-1.30;99.90;;;;;;4411006;28;659768;-75
2023/03/04 07:11:29;;;;;;;61.77;19.00;;;-1.30;99.90;;;;;;4425130;28;659444;-75
2023/03/04 07:14:16;;;;;;;85.23;26.30;;;-1.30;99.90;;;;;;4398576;28;658178;-76
2023/03/04 07:17:03;;;;;;;81.83;23.37;;;-1.30;99.90;;;;;;4426107;28;659030;-76
2023/03/04 07:19:51;;;;;;;77.37;23.30;;;-1.30;99.90;;;;;;4406213;28;658767;-76
2023/03/04 07:22:38;;;;;;;84.97;25.37;;;-1.20;99.90;;;;;;4426943;28;658835;-76
2023/03/04 07:25:25;;;;;;;67.93;21.67;;;-1.10;99.90;;;;;;4400065;28;658719;-73
2023/03/04 07:28:14;;;;;;;81.67;26.33;;;-1.00;99.90;;;;;;4426532;28;659392;-77
2023/03/04 07:31:09;;;;;;;72.20;22.77;;;-1.00;99.90;;;;;;4404795;28;659805;-76
2023/03/04 07:33:56;;;;;;;84.03;25.83;;;-1.10;99.90;;;;;;4381115;28;659816;-75
2023/03/04 07:36:44;;;;;;;67.40;22.03;;;-1.00;99.90;;;;;;4419301;28;658460;-76
2023/03/04 07:39:31;;;;;;;70.68;23.83;;;-1.00;99.90;;;;;;4405711;28;658813;-77
2023/03/04 07:42:18;;;;;;;78.33;26.03;;;-1.00;99.90;;;;;;4436542;28;658069;-76
2023/03/04 07:45:09;;;;;;;73.53;24.30;;;-1.00;99.90;;;;;;4406868;28;658577;-75
2023/03/04 07:47:57;;;;;;;71.63;23.80;;;-1.00;99.90;;;;;;4399556;28;658650;-75
2023/03/04 07:50:44;;;;;;;61.70;20.97;;;-1.00;99.90;;;;;;4430788;28;658489;-76
2023/03/04 07:53:32;;;;;;;67.53;24.97;;;-1.00;99.90;;;;;;4406339;28;659328;-76
2023/03/04 07:56:20;;;;;;;54.33;18.77;;;-0.80;99.90;;;;;;4428157;28;658497;-76
2023/03/04 07:59:07;;;;;;;57.27;19.73;;;-0.90;99.90;;;;;;4402046;28;659119;-76
2023/03/04 08:01:56;;;;;;;54.53;18.58;;;-1.00;99.90;;;;;;4419504;28;658570;-76
2023/03/04 08:04:43;;;;;;;65.67;22.97;;;-1.00;99.90;;;;;;4401146;28;658803;-75
2023/03/04 08:07:30;;;;;;;47.47;16.55;;;-0.90;99.90;;;;;;4404142;28;658918;-75
2023/03/04 08:10:18;;;;;;;50.73;16.87;;;-0.90;99.90;;;;;;4424200;28;659781;-75
2023/03/04 08:13:05;;;;;;;54.27;18.43;;;-0.90;99.90;;;;;;4414165;28;658830;-75
2023/03/04 08:15:52;;;;;;;54.33;18.67;;;-0.90;99.90;;;;;;4425541;28;659120;-75
2023/03/04 08:18:42;;;;;;;48.97;16.77;;;-0.90;99.90;;;;;;4410676;28;659057;-74
2023/03/04 08:21:29;;;;;;;49.05;18.25;;;-0.90;99.90;;;;;;4429839;28;658630;-75
2023/03/04 08:24:16;;;;;;;45.67;17.20;;;-0.90;99.90;;;;;;4397507;28;658993;-74
2023/03/04 08:27:05;;;;;;;58.37;21.10;;;-0.80;99.90;;;;;;4421904;28;659661;-75
2023/03/04 08:29:52;;;;;;;59.10;21.80;;;-0.80;99.90;;;;;;4401813;28;659293;-75
2023/03/04 08:32:39;;;;;;;64.18;23.25;;;-0.70;99.90;;;;;;4421871;28;659065;-75
2023/03/04 08:35:28;;;;;;;55.27;20.43;;;-0.70;99.90;;;;;;4397848;28;658988;-75
2023/03/04 08:38:15;;;;;;;39.60;15.13;;;-0.70;99.90;;;;;;4404226;28;659071;-75
2023/03/04 08:41:03;;;;;;;35.63;13.93;;;-0.70;99.90;;;;;;4419354;28;659815;-75
2023/03/04 08:43:50;;;;;;;59.75;21.73;;;-0.70;99.90;;;;;;4403824;28;658679;-75
2023/03/04 08:46:38;;;;;;;52.97;21.23;;;-0.70;99.90;;;;;;4426357;28;658510;-74
2023/03/04 08:49:25;;;;;;;39.40;15.87;;;-0.70;99.90;;;;;;4417279;28;659738;-74
2023/03/04 08:52:14;;;;;;;55.20;20.57;;;-0.60;99.90;;;;;;4424737;28;659424;-75
2023/03/04 08:55:01;;;;;;;51.27;19.77;;;-0.60;99.90;;;;;;4399290;28;658820;-74
2023/03/04 08:57:48;;;;;;;39.67;15.53;;;-0.60;99.90;;;;;;4420361;28;659411;-75
2023/03/04 09:00:36;;;;;;;40.07;14.17;;;-0.60;99.90;;;;;;4402597;28;658808;-74
2023/03/04 09:03:24;;;;;;;52.50;20.83;;;-0.60;99.90;;;;;;4426071;28;658415;-74
2023/03/04 09:06:12;;;;;;;50.88;19.85;;;-0.60;99.90;;;;;;4400829;28;658981;-74
2023/03/04 09:09:01;;;;;;;52.93;20.07;;;-0.60;99.90;;;;;;4422057;28;657918;-74
2023/03/04 09:11:48;;;;;;;37.95;14.07;;;-0.50;99.90;;;;;;4394195;28;658706;-75
2023/03/04 09:14:35;;;;;;;45.80;17.33;;;-0.50;99.90;;;;;;4403983;28;658999;-74
2023/03/04 09:17:23;;;;;;;43.47;16.33;;;-0.60;99.90;;;;;;4250030;28;659175;-74
2023/03/04 09:20:11;;;;;;;34.40;13.70;;;-0.50;99.90;;;;;;4220007;28;658788;-73
2023/03/04 09:22:59;;;;;;;53.47;14.97;;;-0.50;99.90;;;;;;4351142;28;659743;-75
2023/03/04 09:25:48;;;;;;;39.77;16.33;;;-0.50;99.90;;;;;;4393213;28;658965;-74
2023/03/04 09:28:35;;;;;;;37.88;15.15;;;-0.50;99.90;;;;;;4404748;28;658145;-74
2023/03/04 09:31:23;;;;;;;42.33;15.33;;;-0.40;99.90;;;;;;4428256;28;658040;-74
2023/03/04 09:34:10;;;;;;;34.63;12.80;;;-0.40;99.90;;;;;;4406262;28;658821;-74
2023/03/04 09:36:58;;;;;;;47.40;17.93;;;-0.30;99.90;;;;;;4432656;28;658501;-75
2023/03/04 09:39:45;;;;;;;47.63;16.65;;;-0.30;99.90;;;;;;4408152;28;658631;-74
2023/03/04 09:42:36;;;;;;;40.43;17.03;;;-0.20;99.90;;;;;;4437983;28;660159;-75
2023/03/04 09:45:26;;;;;;;39.40;16.65;;;-0.30;99.90;;;;;;4403232;28;659454;-74
2023/03/04 09:48:15;;;;;;;54.10;19.70;;;-0.30;99.90;;;;;;4402583;28;658832;-74
2023/03/04 09:51:11;;;;;;;43.20;16.90;;;-0.30;99.90;;;;;;4411355;28;659425;-74
2023/03/04 09:54:05;;;;;;;50.87;18.57;;;-0.30;99.90;;;;;;4400688;28;658796;-74
2023/03/04 09:56:52;;;;;;;49.13;17.23;;;-0.30;99.90;;;;;;4379376;28;658882;-75
2023/03/04 09:59:43;;;;;;;48.47;18.57;;;-0.40;99.90;;;;;;4418995;28;659108;-74
2023/03/04 10:02:35;;;;;;;53.60;21.37;;;-0.40;99.90;;;;;;4411656;28;658676;-75
2023/03/04 10:05:23;;;;;;;40.97;16.13;;;-0.40;99.90;;;;;;4403668;28;659862;-74
2023/03/04 10:08:34;;;;;;;34.67;12.53;;;-0.30;99.90;;;;;;4413548;28;659172;-75
2023/03/04 10:11:24;;;;;;;47.73;19.00;;;-0.30;99.90;;;;;;4406036;28;659295;-74
2023/03/04 10:14:24;;;;;;;56.67;21.03;;;-0.40;99.90;;;;;;4407022;28;658747;-75
2023/03/04 10:17:16;;;;;;;43.37;16.17;;;-0.30;99.90;;;;;;4404357;28;658864;-75
2023/03/04 10:20:04;;;;;;;56.97;19.27;;;-0.30;99.90;;;;;;4408613;28;659586;-75
2023/03/04 10:22:52;;;;;;;58.07;23.20;;;-0.30;99.90;;;;;;4406512;28;659492;-74
2023/03/04 10:25:43;;;;;;;51.17;20.53;;;-0.40;99.90;;;;;;4419001;28;658531;-74
2023/03/04 10:28:30;;;;;;;44.75;17.55;;;-0.30;99.90;;;;;;4409573;28;658530;-74
2023/03/04 10:31:21;;;;;;;49.70;18.87;;;-0.30;99.90;;;;;;4420944;28;659493;-74
2023/03/04 10:34:11;;;;;;;44.57;17.57;;;-0.20;99.90;;;;;;4398587;28;659324;-74
2023/03/04 10:36:59;;;;;;;47.23;19.77;;;-0.30;99.90;;;;;;4400310;28;659160;-74
2023/03/04 10:39:48;;;;;;;37.27;15.57;;;-0.20;99.90;;;;;;4400641;28;659127;-75
2023/03/04 10:42:36;;;;;;;47.30;19.17;;;-0.20;99.90;;;;;;4409931;28;659500;-74
2023/03/04 10:45:24;;;;;;;43.07;17.60;;;-0.20;99.90;;;;;;4429056;28;660208;-74
2023/03/04 10:48:21;;;;;;;54.47;22.13;;;-0.20;99.90;;;;;;4403480;28;658145;-74
2023/03/04 10:51:18;;;;;;;44.87;19.77;;;-0.10;99.90;;;;;;4391513;28;659344;-75
2023/03/04 10:54:08;;;;;;;48.30;17.10;;;-0.20;99.90;;;;;;4387495;28;658776;-74
2023/03/04 10:57:05;;;;;;;37.67;15.07;;;-0.10;99.90;;;;;;4416879;28;658878;-74
2023/03/04 10:59:56;;;;;;;51.20;19.03;;;-0.20;99.90;;;;;;4399646;28;658942;-76
2023/03/04 11:02:44;;;;;;;50.70;21.27;;;-0.20;99.90;;;;;;4399173;28;658912;-75
2023/03/04 11:05:32;;;;;;;47.43;17.43;;;-0.20;99.90;;;;;;4408264;28;659141;-76
2023/03/04 11:08:22;;;;;;;61.40;21.60;;;-0.20;99.90;;;;;;4436112;28;658177;-75
2023/03/04 11:11:26;;;;;;;55.80;21.30;;;-0.20;99.90;;;;;;4406687;28;658490;-75
2023/03/04 11:14:17;;;;;;;58.90;21.57;;;-0.10;99.90;;;;;;4399659;28;658912;-74
2023/03/04 11:17:21;;;;;;;62.95;23.25;;;-0.10;99.90;;;;;;4406020;28;658595;-75
2023/03/04 11:20:13;;;;;;;70.80;25.73;;;-0.10;99.90;;;;;;4404083;28;658910;-74
2023/03/04 11:23:03;;;;;;;61.67;22.07;;;-0.20;99.90;;;;;;4382018;28;659359;-75
2023/03/04 11:25:55;;;;;;;64.13;22.93;;;-0.20;99.90;;;;;;4392468;28;658247;-74
2023/03/04 11:28:45;;;;;;;64.07;24.00;;;-0.20;99.90;;;;;;4398099;28;659025;-74
2023/03/04 11:31:34;;;;;;;88.93;31.40;;;-0.20;99.90;;;;;;4396965;28;659456;-74
2023/03/04 11:34:29;;;;;;;97.15;33.10;;;-0.20;99.90;;;;;;4396461;28;658876;-75
2023/03/04 11:37:18;;;;;;;89.83;31.70;;;-0.30;99.90;;;;;;4393491;28;659736;-74
2023/03/04 11:40:09;;;;;;;113.90;36.33;;;-0.40;99.90;;;;;;4392164;28;659624;-74
2023/03/04 11:42:58;;;;;;;103.03;35.00;;;-0.50;99.90;;;;;;4401088;28;659637;-75
2023/03/04 11:45:58;;;;;;;114.20;37.67;;;-0.50;99.90;;;;;;4397337;28;659895;-74
2023/03/04 11:48:49;;;;;;;107.15;33.95;;;-0.40;99.90;;;;;;4403790;28;659657;-74
2023/03/04 11:51:38;;;;;;;99.57;32.87;;;-0.70;99.90;;;;;;4403225;28;660225;-75
2023/03/04 11:54:28;;;;;;;97.90;31.30;;;-0.70;99.90;;;;;;4417043;28;658549;-73
2023/03/04 11:57:22;;;;;;;115.68;34.00;;;-0.60;99.90;;;;;;4411703;28;658942;-75
2023/03/04 12:00:21;;;;;;;115.30;35.00;;;-0.60;99.90;;;;;;4421443;28;660124;-74
2023/03/04 12:03:38;;;;;;;103.35;33.92;;;-0.70;99.90;;;;;;4400777;28;659906;-74
2023/03/04 12:06:31;;;;;;;109.07;36.07;;;-0.60;99.90;;;;;;4399235;28;660334;-75
2023/03/04 12:09:29;;;;;;;114.80;34.83;;;-0.60;99.90;;;;;;4396385;28;659809;-75
2023/03/04 12:12:29;;;;;;;86.07;26.00;;;-0.70;99.90;;;;;;4402784;28;659811;-75
2023/03/04 12:15:20;;;;;;;91.67;27.97;;;-0.60;99.90;;;;;;4402502;28;658661;-75
2023/03/04 12:18:22;;;;;;;105.13;34.40;;;-0.60;99.90;;;;;;4400060;28;658990;-74
2023/03/04 12:21:19;;;;;;;112.43;34.80;;;-0.60;99.90;;;;;;4400885;28;659548;-75
2023/03/04 12:24:22;;;;;;;107.57;33.50;;;-0.70;99.90;;;;;;4394801;28;659897;-74
2023/03/04 12:27:16;;;;;;;99.30;31.30;;;-0.70;99.90;;;;;;4396267;28;659620;-75
2023/03/04 12:30:06;;;;;;;85.30;28.97;;;-0.70;99.90;;;;;;4402667;28;658758;-75
2023/03/04 12:32:57;;;;;;;63.77;20.13;;;-0.60;99.90;;;;;;4403977;28;658840;-74
2023/03/04 12:35:46;;;;;;;110.57;34.43;;;-0.50;99.90;;;;;;4400360;28;658274;-75
2023/03/04 12:39:00;;;;;;;97.17;32.53;;;-0.50;99.90;;;;;;4407900;28;660822;-75
2023/03/04 12:41:49;;;;;;;95.60;30.40;;;-0.50;99.90;;;;;;4332990;28;659345;-74
2023/03/04 12:44:39;;;;;;;83.87;28.17;;;-0.50;99.90;;;;;;4402902;28;658912;-75
2023/03/04 12:47:31;;;;;;;101.77;32.87;;;-0.50;99.90;;;;;;4403870;28;658450;-75
2023/03/04 12:50:30;;;;;;;104.93;33.03;;;-0.50;99.90;;;;;;4395122;28;660421;-76
2023/03/04 12:53:21;;;;;;;87.73;28.13;;;-0.40;99.90;;;;;;4380681;28;660476;-75
2023/03/04 12:56:11;;;;;;;111.37;33.63;;;-0.30;99.90;;;;;;4406091;28;658874;-75
2023/03/04 12:58:59;;;;;;;96.53;32.63;;;-0.30;99.90;;;;;;4385029;28;660390;-75
2023/03/04 13:01:49;;;;;;;107.63;32.58;;;-0.30;99.90;;;;;;4399129;28;658630;-75
2023/03/04 13:04:40;;;;;;;95.33;32.60;;;-0.10;99.90;;;;;;4399492;28;660585;-75
2023/03/04 13:07:37;;;;;;;74.50;25.70;;;-0.10;99.90;;;;;;4397987;28;659302;-76
2023/03/04 13:10:24;;;;;;;98.83;30.63;;;0.00;99.90;;;;;;4395865;28;658380;-76
2023/03/04 13:13:41;;;;;;;58.07;19.53;;;0.00;99.90;;;;;;4403034;28;657588;-74
2023/03/04 13:16:31;;;;;;;82.83;28.97;;;0.00;99.90;;;;;;4400630;28;657419;-74
2023/03/04 13:19:43;;;;;;;85.97;30.13;;;0.00;99.90;;;;;;4403967;28;658739;-74
2023/03/04 13:22:42;;;;;;;84.67;27.73;;;0.10;99.90;;;;;;4380434;28;658021;-74
2023/03/04 13:25:31;;;;;;;74.00;26.47;;;0.10;99.90;;;;;;4394250;28;658314;-76
2023/03/04 13:28:23;;;;;;;74.68;23.38;;;0.10;99.90;;;;;;4393691;28;658425;-75
2023/03/04 13:34:50;;;;;;;56.00;18.90;;;0.10;99.90;;;;;;4386241;28;661223;-73
2023/03/04 13:37:39;;;;;;;71.20;26.00;;;0.20;99.90;;;;;;4405633;28;657785;-76
2023/03/04 13:40:33;;;;;;;77.67;24.87;;;0.20;99.90;;;;;;4404728;28;657761;-74
2023/03/04 13:43:38;;;;;;;72.63;25.37;;;0.20;99.90;;;;;;4402755;28;657922;-74
2023/03/04 13:46:29;;;;;;;82.43;28.63;;;0.20;99.90;;;;;;4411314;28;657920;-74
2023/03/04 13:49:20;;;;;;;73.33;26.97;;;0.30;99.90;;;;;;4406895;28;657678;-75
2023/03/04 13:52:40;;;;;;;72.37;25.43;;;0.30;99.90;;;;;;4390874;28;659206;-76
2023/03/04 13:55:37;;;;;;;65.97;23.27;;;0.30;99.90;;;;;;4402521;28;658006;-76
2023/03/04 13:58:26;;;;;;;64.73;24.77;;;0.30;99.90;;;;;;4398640;28;657420;-75
2023/03/04 14:01:25;;;;;;;65.20;22.77;;;0.40;99.90;;;;;;4397450;28;658194;-75
2023/03/04 14:04:17;;;;;;;67.90;22.53;;;0.40;99.90;;;;;;4377867;28;657597;-75
2023/03/04 14:07:17;;;;;;;60.13;22.70;;;0.40;99.90;;;;;;4393914;28;657672;-74
2023/03/04 14:10:07;;;;;;;53.60;18.03;;;0.40;99.90;;;;;;4395033;28;657167;-74